UATGURWA

Guest
Details From UATG - ATYRAU
To URWA - ASTRAKHAN
Flight Number -
Tags generated
Created
Modified
Stats Distance 167 nm / 309 km
Max Altitude 14,400 ft / 4,389 m
Waypoints 4
Social Downloads 0
Likes 0
Share VATSIM

Download

Looking for another format? Having issues loading an existing format? Contact us
Advertisement - Login to hide

Notes

Basic altitude profile: - Ascent Rate: 2500ft/min - Ascent Speed: 250kts - Cruise Altitude: 35000ft - Cruise Speed: 420kts - Descent Rate: 1500ft/min - Descent Speed: 250kts Options: - Use NATs: yes - Use PACOTS: yes - Use low airways: yes - Use high airways: yes

Route

UATG TUGLA G487 OBATA URWA

ID Type Via Altitude Latitude Longitude Leg Dist Tot Dist Heading (true) Name
O UATG APT - 0 ft / 0 m 47.12194˚ 51.82131˚ - 0 nm - ATYRAU
TUGLA FIX - 14,400 ft / 4,389 m 46.86167˚ 50.83500˚ 43 nm 43 nm 249° / 248° -
OBATA FIX G487 (AWY-LO) 10,600 ft / 3,231 m 46.35833˚ 49.19667˚ 74 nm 117 nm 247° / 245° -
O URWA APT - 0 ft / 0 m 46.28073˚ 48.00619˚ 49 nm 166 nm 265° / 264° ASTRAKHAN

Altitude Profile

Advertisement - Login to hide

Weather


0- 5 10 15 20 25 30 35+ Temperature / ° C

Clouds and Precipitation
Forecast for 2017-12-18 18:00 UTC. Updated an hour ago

Ground ~20,000 ft ~40,000 ft Winds

UATG

Details ICAO UATG (GUW)
Name ATYRAU
Region Kazakhstan and Kyrgyzstan
Timezone Asia/Aqtau (UTC+5.0)
Stats Elevation -72 ft / -22 m (AMSL)
Location 47.121939° 51.821307°
Runways 1
Magnetic Variation 8.892° E

METAR

UATG 181830Z 11007MPS CAVOK M11/M14 Q1032 R14/82//65 NOSIG RMK QFE776/1035

Decode

TAF

TAF UATG 181701Z 1818/1918 10007MPS 9999 SCT033 TXM03/1911Z TNM13/1903Z BECMG 1819/1821 3000 BR BKN010 TEMPO 1821/1903 0300 FZFG VV001

Decode

Departure Runways

ID Width Length Bearing (true) Bearing (mag) Surface Threshold Offset Overrun Length
14 144 ft / 44 m 9,839 ft / 2,999 m 149.96° 141.07° Asphalt 0 ft / 0 m 0 ft / 0 m
32 144 ft / 44 m 9,839 ft / 2,999 m 329.98° 321.09° Asphalt 0 ft / 0 m 0 ft / 0 m

URWA

Details ICAO URWA (ASF)
Name ASTRAKHAN
Region Russia
Timezone Europe/Volgograd (UTC+3.0)
Stats Elevation -65 ft / -20 m (AMSL)
Location 46.280732° 48.006186°
Runways 2
Magnetic Variation 8.391° E

METAR

URWA 181830Z 09005MPS CAVOK M03/M05 Q1027 R09/010060 NOSIG RMK QFE773/1030

Decode

TAF

Not found

Destination Runways

ID Width Length Bearing (true) Bearing (mag) Surface Threshold Offset Overrun Length
09 138 ft / 42 m 8,181 ft / 2,494 m 96.01° 87.62° Concrete 0 ft / 0 m 165 ft / 50 m
11 330 ft / 101 m 5,083 ft / 1,549 m 120.87° 112.48° Grass 0 ft / 0 m 0 ft / 0 m
27 138 ft / 42 m 8,181 ft / 2,494 m 276.03° 267.64° Concrete 0 ft / 0 m 165 ft / 50 m
29 330 ft / 101 m 5,083 ft / 1,549 m 300.88° 292.49° Grass 0 ft / 0 m 0 ft / 0 m